createdAt,value
2022-09-27T00:02:28.311Z,14.08
2022-09-27T00:07:30.372Z,14.06
2022-09-27T00:12:32.411Z,14.03
2022-09-27T00:17:34.363Z,14.03
2022-09-27T00:22:36.574Z,14.04
2022-09-27T00:27:38.498Z,14.02
2022-09-27T00:32:40.404Z,14.00
2022-09-27T00:37:42.993Z,13.98
2022-09-27T00:42:45.223Z,13.98
2022-09-27T00:48:01.129Z,13.96
2022-09-27T00:53:23.828Z,13.95
2022-09-27T00:58:37.747Z,13.96
2022-09-27T01:03:45.464Z,13.93
2022-09-27T01:08:47.632Z,13.93
2022-09-27T01:14:15.162Z,13.93
2022-09-27T01:19:39.386Z,13.94
2022-09-27T01:24:41.433Z,13.93
2022-09-27T01:30:01.987Z,13.94
2022-09-27T01:35:34.595Z,13.96
2022-09-27T01:40:42.516Z,13.93
2022-09-27T01:46:11.924Z,13.92
2022-09-27T01:51:45.437Z,13.91
2022-09-27T01:56:52.407Z,13.90
2022-09-27T02:02:03.612Z,13.88
2022-09-27T02:07:25.585Z,13.86
2022-09-27T02:12:35.906Z,13.84
2022-09-27T02:17:51.442Z,13.81
2022-09-27T02:23:31.896Z,13.80
2022-09-27T02:28:56.457Z,13.75
2022-09-27T02:34:13.923Z,13.70
2022-09-27T02:39:17.971Z,13.69
2022-09-27T02:44:21.469Z,13.67
2022-09-27T02:49:42.257Z,13.64
2022-09-27T02:55:24.883Z,13.59
2022-09-27T03:01:01.541Z,13.55
2022-09-27T03:06:37.861Z,13.55
2022-09-27T03:11:39.708Z,13.58
2022-09-27T03:16:41.864Z,13.61
2022-09-27T03:22:04.193Z,13.64
2022-09-27T03:27:06.437Z,13.63
2022-09-27T03:32:08.298Z,13.63
2022-09-27T03:37:37.925Z,13.61
2022-09-27T03:42:39.932Z,13.61
2022-09-27T03:47:42.041Z,13.59
2022-09-27T03:52:44.879Z,13.57
2022-09-27T03:57:47.544Z,13.56
2022-09-27T04:02:51.726Z,13.55
2022-09-27T04:07:59.772Z,13.54
2022-09-27T04:13:04.536Z,13.54
2022-09-27T04:18:11.831Z,13.54
2022-09-27T04:23:31.793Z,13.54
2022-09-27T04:28:33.814Z,13.52
2022-09-27T04:33:35.724Z,13.53
2022-09-27T04:38:41.938Z,13.53
2022-09-27T04:43:44.190Z,13.54
2022-09-27T04:48:46.255Z,13.53
2022-09-27T04:53:48.137Z,13.54
2022-09-27T04:58:50.148Z,13.54
2022-09-27T05:03:52.464Z,13.53
2022-09-27T05:08:54.446Z,13.51
2022-09-27T05:14:01.960Z,13.51
2022-09-27T05:19:04.763Z,13.49
2022-09-27T05:24:25.422Z,13.47
2022-09-27T05:29:28.819Z,13.47
2022-09-27T05:34:45.206Z,13.47
2022-09-27T05:39:47.356Z,13.46
2022-09-27T05:44:49.330Z,13.47
2022-09-27T05:49:51.898Z,13.46
2022-09-27T05:54:53.835Z,13.45
2022-09-27T05:59:55.856Z,13.46
2022-09-27T06:05:15.861Z,13.45
2022-09-27T06:10:37.731Z,13.45
2022-09-27T06:15:44.009Z,13.48
2022-09-27T06:20:46.284Z,13.51
2022-09-27T06:25:49.233Z,13.51
2022-09-27T06:31:15.584Z,13.52
2022-09-27T06:36:51.504Z,13.57
2022-09-27T06:41:58.288Z,13.59
2022-09-27T06:47:19.470Z,13.64
2022-09-27T06:52:38.176Z,13.66
2022-09-27T06:57:58.705Z,13.71
2022-09-27T07:03:03.273Z,13.77
2022-09-27T07:08:40.240Z,13.81
2022-09-27T07:13:43.729Z,13.82
2022-09-27T07:18:48.449Z,13.85
2022-09-27T07:23:50.703Z,13.89
2022-09-27T07:28:53.537Z,13.89
2022-09-27T07:33:57.253Z,13.92
2022-09-27T07:39:00.193Z,13.97
2022-09-27T07:44:02.596Z,13.99
2022-09-27T07:49:08.222Z,14.00
2022-09-27T07:54:25.197Z,14.00
2022-09-27T07:59:49.368Z,14.01
2022-09-27T08:04:54.146Z,14.02
2022-09-27T08:09:57.103Z,13.99
2022-09-27T08:15:01.535Z,13.96
2022-09-27T08:20:06.554Z,13.98
2022-09-27T08:25:30.597Z,14.02
2022-09-27T08:31:00.243Z,14.06
2022-09-27T08:36:03.534Z,14.11
2022-09-27T08:41:29.237Z,14.21
2022-09-27T08:46:48.880Z,14.32
2022-09-27T08:51:54.156Z,14.36
2022-09-27T08:57:03.901Z,14.43
2022-09-27T09:02:16.266Z,14.42
2022-09-27T09:07:32.582Z,14.43
2022-09-27T09:12:48.623Z,14.42
2022-09-27T09:18:20.964Z,14.32
2022-09-27T09:23:50.433Z,14.20
2022-09-27T09:29:20.664Z,14.07
2022-09-27T09:34:28.200Z,13.98
2022-09-27T09:39:44.384Z,13.96
2022-09-27T09:45:00.267Z,13.95
2022-09-27T09:50:18.553Z,13.90
2022-09-27T09:55:23.555Z,13.99
2022-09-27T10:00:26.107Z,14.14
2022-09-27T10:05:29.444Z,14.33
2022-09-27T10:10:38.628Z,14.37
2022-09-27T10:16:12.032Z,14.40
2022-09-27T10:21:38.723Z,14.42
2022-09-27T10:26:44.123Z,14.40
2022-09-27T10:31:48.727Z,14.29
2022-09-27T10:37:17.377Z,14.45
2022-09-27T10:42:38.992Z,14.62
2022-09-27T10:47:44.643Z,14.49
2022-09-27T10:53:06.934Z,14.22
2022-09-27T10:58:20.817Z,13.97
2022-09-27T11:03:26.505Z,13.76
2022-09-27T11:08:34.147Z,13.68
2022-09-27T11:14:05.281Z,13.70
2022-09-27T11:19:36.616Z,13.67
2022-09-27T11:25:04.877Z,13.58
2022-09-27T11:30:14.087Z,13.60
2022-09-27T11:35:42.283Z,13.59
2022-09-27T11:41:22.931Z,13.51
2022-09-27T11:46:41.330Z,13.52
2022-09-27T11:51:52.073Z,13.66
2022-09-27T11:57:23.383Z,13.95
2022-09-27T12:02:54.767Z,14.15
2022-09-27T12:08:08.787Z,14.26
2022-09-27T12:13:14.727Z,14.20
2022-09-27T12:18:35.403Z,14.06
2022-09-27T12:23:47.469Z,13.94
2022-09-27T12:29:27.840Z,13.85
2022-09-27T12:34:50.841Z,13.84
2022-09-27T12:39:55.840Z,13.88
2022-09-27T12:45:05.833Z,13.89
2022-09-27T12:50:07.678Z,13.94
2022-09-27T12:55:12.431Z,13.98
2022-09-27T13:00:25.714Z,13.96
2022-09-27T13:06:00.677Z,14.03
2022-09-27T13:11:30.495Z,14.08
2022-09-27T13:16:46.890Z,14.07
2022-09-27T13:21:51.475Z,14.07
2022-09-27T13:27:36.566Z,14.16
2022-09-27T13:32:41.030Z,14.21
2022-09-27T13:37:54.304Z,14.27
2022-09-27T13:43:13.446Z,14.16
2022-09-27T13:48:36.679Z,14.10
2022-09-27T13:53:41.363Z,14.00
2022-09-27T13:58:52.824Z,13.92
2022-09-27T14:04:18.355Z,13.94
2022-09-27T14:09:32.071Z,13.98
2022-09-27T14:14:49.972Z,13.96
2022-09-27T14:19:54.280Z,13.99
2022-09-27T14:24:58.133Z,14.03
2022-09-27T14:30:17.296Z,14.00
2022-09-27T14:35:50.471Z,13.88
2022-09-27T14:40:53.398Z,13.74
2022-09-27T14:46:07.161Z,13.63
2022-09-27T14:51:15.074Z,13.58
2022-09-27T14:56:32.530Z,13.49
2022-09-27T15:01:35.265Z,13.44
2022-09-27T15:06:37.350Z,13.38
2022-09-27T15:11:41.695Z,13.38
2022-09-27T15:16:49.469Z,13.35
2022-09-27T15:21:51.626Z,13.33
2022-09-27T15:26:53.460Z,13.30
2022-09-27T15:32:06.926Z,13.25
2022-09-27T15:37:26.405Z,13.18
2022-09-27T15:42:28.279Z,13.12
2022-09-27T15:47:34.576Z,13.12
2022-09-27T15:52:43.777Z,13.11
2022-09-27T15:57:50.628Z,13.08
2022-09-27T16:02:52.886Z,13.07
2022-09-27T16:07:54.730Z,13.07
2022-09-27T16:12:56.709Z,13.04
2022-09-27T16:17:59.101Z,12.98
2022-09-27T16:23:00.968Z,12.90
2022-09-27T16:28:05.331Z,12.78
2022-09-27T16:33:07.078Z,12.65
2022-09-27T16:38:09.333Z,12.54
2022-09-27T16:43:12.139Z,12.47
2022-09-27T16:48:13.983Z,12.42
2022-09-27T16:53:16.091Z,12.36
2022-09-27T16:58:17.943Z,12.33
2022-09-27T17:03:19.816Z,12.29
2022-09-27T17:08:26.331Z,12.24
2022-09-27T17:13:28.167Z,12.17
2022-09-27T17:18:29.926Z,12.13
2022-09-27T17:23:32.691Z,12.09
2022-09-27T17:28:36.677Z,12.07
2022-09-27T17:33:46.140Z,12.05
2022-09-27T17:38:49.145Z,12.00
2022-09-27T17:43:56.557Z,11.96
2022-09-27T17:49:17.497Z,11.93
2022-09-27T17:54:22.894Z,11.89
2022-09-27T17:59:26.289Z,11.86
2022-09-27T18:04:28.551Z,11.84
2022-09-27T18:09:30.525Z,11.84
2022-09-27T18:14:32.343Z,11.83
2022-09-27T18:19:34.098Z,11.84
2022-09-27T18:24:35.967Z,11.78
2022-09-27T18:29:37.803Z,11.74
2022-09-27T18:34:40.355Z,11.68
2022-09-27T18:39:42.137Z,11.64
2022-09-27T18:44:43.857Z,11.60
2022-09-27T18:49:45.553Z,11.56
2022-09-27T18:54:47.567Z,11.53
2022-09-27T18:59:49.502Z,11.50
2022-09-27T19:04:51.337Z,11.48
2022-09-27T19:09:53.664Z,11.48
2022-09-27T19:14:55.512Z,11.51
2022-09-27T19:19:57.317Z,11.53
2022-09-27T19:24:59.362Z,11.54
2022-09-27T19:30:01.300Z,11.48
2022-09-27T19:35:04.187Z,11.44
2022-09-27T19:40:06.907Z,11.40
2022-09-27T19:45:11.699Z,11.35
2022-09-27T19:50:13.589Z,11.30
2022-09-27T19:55:15.877Z,11.25
2022-09-27T20:00:17.828Z,11.20
2022-09-27T20:05:19.592Z,11.17
2022-09-27T20:10:21.759Z,11.14
2022-09-27T20:15:23.647Z,11.12
2022-09-27T20:20:25.496Z,11.09
2022-09-27T20:25:28.528Z,11.08
2022-09-27T20:30:30.406Z,11.06
2022-09-27T20:35:32.287Z,11.05
2022-09-27T20:40:34.109Z,11.06
2022-09-27T20:45:35.938Z,11.06
2022-09-27T20:50:37.686Z,11.07
2022-09-27T20:55:39.490Z,11.06
2022-09-27T21:00:41.595Z,11.03
2022-09-27T21:05:43.438Z,11.02
2022-09-27T21:10:49.150Z,11.00
2022-09-27T21:15:53.680Z,10.98
2022-09-27T21:21:05.182Z,10.96
2022-09-27T21:26:12.646Z,10.94
2022-09-27T21:31:22.343Z,10.93
2022-09-27T21:36:28.195Z,10.93
2022-09-27T21:41:30.024Z,10.92
2022-09-27T21:46:32.007Z,10.90
2022-09-27T21:51:37.631Z,10.88
2022-09-27T21:56:40.901Z,10.86
2022-09-27T22:01:44.362Z,10.84
2022-09-27T22:06:46.232Z,10.85
2022-09-27T22:11:48.134Z,10.84
2022-09-27T22:16:50.054Z,10.85
2022-09-27T22:21:51.911Z,10.86
2022-09-27T22:26:54.250Z,10.88
2022-09-27T22:31:55.995Z,10.89
2022-09-27T22:37:00.865Z,10.91
2022-09-27T22:42:02.648Z,10.93
2022-09-27T22:47:05.384Z,10.91
2022-09-27T22:52:07.178Z,10.89
2022-09-27T22:57:08.926Z,10.89
2022-09-27T23:02:10.713Z,10.88
2022-09-27T23:07:13.313Z,10.87
2022-09-27T23:12:15.047Z,10.84
2022-09-27T23:17:19.274Z,10.83
2022-09-27T23:22:21.232Z,10.80
2022-09-27T23:27:41.706Z,10.78
2022-09-27T23:32:47.303Z,10.77
2022-09-27T23:37:53.300Z,10.75
2022-09-27T23:42:55.092Z,10.77
2022-09-27T23:47:57.592Z,10.77
2022-09-27T23:52:59.681Z,10.78
2022-09-27T23:58:02.013Z,10.76
